sensor_id;sensor_type;location;lat;lon;timestamp;pressure;altitude;pressure_sealevel;temperature;humidity
8059;BME280;4072;42.668;23.396;2023-12-14T00:00:08;94138.00;;;6.37;100.00
8059;BME280;4072;42.668;23.396;2023-12-14T00:02:38;94123.22;;;6.32;100.00
8059;BME280;4072;42.668;23.396;2023-12-14T00:05:09;94049.50;;;5.63;100.00
8059;BME280;4072;42.668;23.396;2023-12-14T00:07:37;94125.31;;;6.06;100.00
8059;BME280;4072;42.668;23.396;2023-12-14T00:10:07;94137.75;;;6.13;100.00
8059;BME280;4072;42.668;23.396;2023-12-14T00:12:35;94124.81;;;6.21;100.00
8059;BME280;4072;42.668;23.396;2023-12-14T00:15:04;94117.38;;;6.25;100.00
8059;BME280;4072;42.668;23.396;2023-12-14T00:17:32;94129.38;;;6.11;100.00
8059;BME280;4072;42.668;23.396;2023-12-14T00:20:01;94127.47;;;6.21;100.00
8059;BME280;4072;42.668;23.396;2023-12-14T00:22:31;94126.59;;;6.15;100.00
8059;BME280;4072;42.668;23.396;2023-12-14T00:25:00;94125.81;;;6.14;100.00
8059;BME280;4072;42.668;23.396;2023-12-14T00:27:28;94132.47;;;6.00;100.00
8059;BME280;4072;42.668;23.396;2023-12-14T00:29:57;94125.66;;;6.08;100.00
8059;BME280;4072;42.668;23.396;2023-12-14T00:32:25;94132.41;;;6.22;100.00
8059;BME280;4072;42.668;23.396;2023-12-14T00:34:53;94134.53;;;6.27;100.00
8059;BME280;4072;42.668;23.396;2023-12-14T00:37:21;94125.91;;;6.32;100.00
8059;BME280;4072;42.668;23.396;2023-12-14T00:39:51;94133.63;;;6.21;100.00
8059;BME280;4072;42.668;23.396;2023-12-14T00:42:21;94077.25;;;5.99;100.00
8059;BME280;4072;42.668;23.396;2023-12-14T00:44:49;94138.13;;;6.33;100.00
8059;BME280;4072;42.668;23.396;2023-12-14T00:47:17;94073.09;;;5.98;100.00
8059;BME280;4072;42.668;23.396;2023-12-14T00:49:47;94151.72;;;6.30;100.00
8059;BME280;4072;42.668;23.396;2023-12-14T00:52:15;94126.06;;;6.29;100.00
8059;BME280;4072;42.668;23.396;2023-12-14T00:54:43;94153.69;;;6.38;100.00
8059;BME280;4072;42.668;23.396;2023-12-14T00:57:14;94115.94;;;6.42;100.00
8059;BME280;4072;42.668;23.396;2023-12-14T00:59:43;94059.84;;;6.04;100.00
8059;BME280;4072;42.668;23.396;2023-12-14T01:02:12;94129.09;;;6.49;100.00
8059;BME280;4072;42.668;23.396;2023-12-14T01:04:41;94129.78;;;6.31;100.00
8059;BME280;4072;42.668;23.396;2023-12-14T01:07:10;94127.53;;;6.30;100.00
8059;BME280;4072;42.668;23.396;2023-12-14T01:09:38;94122.69;;;6.16;100.00
8059;BME280;4072;42.668;23.396;2023-12-14T01:12:07;94152.16;;;6.28;100.00
8059;BME280;4072;42.668;23.396;2023-12-14T01:14:36;94127.13;;;6.40;100.00
8059;BME280;4072;42.668;23.396;2023-12-14T01:17:05;94108.41;;;6.28;100.00
8059;BME280;4072;42.668;23.396;2023-12-14T01:19:33;94125.25;;;6.50;100.00
8059;BME280;4072;42.668;23.396;2023-12-14T01:22:01;94142.78;;;6.33;100.00
8059;BME280;4072;42.668;23.396;2023-12-14T01:24:30;94123.91;;;6.24;100.00
8059;BME280;4072;42.668;23.396;2023-12-14T01:26:58;94116.81;;;5.99;100.00
8059;BME280;4072;42.668;23.396;2023-12-14T01:29:27;94116.41;;;6.09;100.00
8059;BME280;4072;42.668;23.396;2023-12-14T01:31:56;94113.53;;;6.35;100.00
8059;BME280;4072;42.668;23.396;2023-12-14T01:34:25;94132.28;;;6.26;100.00
8059;BME280;4072;42.668;23.396;2023-12-14T01:36:54;94095.16;;;6.33;100.00
8059;BME280;4072;42.668;23.396;2023-12-14T01:39:22;94153.31;;;6.58;100.00
8059;BME280;4072;42.668;23.396;2023-12-14T01:41:50;94102.28;;;6.58;100.00
8059;BME280;4072;42.668;23.396;2023-12-14T01:44:18;94140.19;;;6.60;100.00
8059;BME280;4072;42.668;23.396;2023-12-14T01:46:46;94117.81;;;6.63;100.00
8059;BME280;4072;42.668;23.396;2023-12-14T01:49:16;94111.25;;;6.64;100.00
8059;BME280;4072;42.668;23.396;2023-12-14T01:51:44;94095.53;;;6.44;100.00
8059;BME280;4072;42.668;23.396;2023-12-14T01:54:13;94100.09;;;6.35;100.00
8059;BME280;4072;42.668;23.396;2023-12-14T01:56:42;94118.50;;;6.45;100.00
8059;BME280;4072;42.668;23.396;2023-12-14T01:59:11;94129.69;;;6.44;100.00
8059;BME280;4072;42.668;23.396;2023-12-14T02:01:42;94093.00;;;6.50;100.00
8059;BME280;4072;42.668;23.396;2023-12-14T02:04:11;94123.19;;;6.63;100.00
8059;BME280;4072;42.668;23.396;2023-12-14T02:06:41;94102.47;;;6.81;100.00
8059;BME280;4072;42.668;23.396;2023-12-14T02:09:09;94125.63;;;6.79;100.00
8059;BME280;4072;42.668;23.396;2023-12-14T02:11:37;94080.22;;;6.81;100.00
8059;BME280;4072;42.668;23.396;2023-12-14T02:14:06;94033.72;;;6.35;100.00
8059;BME280;4072;42.668;23.396;2023-12-14T02:16:35;94086.22;;;6.85;100.00
8059;BME280;4072;42.668;23.396;2023-12-14T02:19:05;94089.19;;;6.87;100.00
8059;BME280;4072;42.668;23.396;2023-12-14T02:21:33;94098.16;;;6.75;100.00
8059;BME280;4072;42.668;23.396;2023-12-14T02:24:04;94081.75;;;6.82;100.00
8059;BME280;4072;42.668;23.396;2023-12-14T02:26:32;94052.44;;;6.57;100.00
8059;BME280;4072;42.668;23.396;2023-12-14T02:29:00;94106.78;;;6.70;100.00
8059;BME280;4072;42.668;23.396;2023-12-14T02:31:29;94071.44;;;6.80;100.00
8059;BME280;4072;42.668;23.396;2023-12-14T02:33:58;94073.34;;;6.71;100.00
8059;BME280;4072;42.668;23.396;2023-12-14T02:36:26;94068.59;;;6.75;100.00
8059;BME280;4072;42.668;23.396;2023-12-14T02:38:54;94070.31;;;6.51;100.00
8059;BME280;4072;42.668;23.396;2023-12-14T02:41:24;94099.59;;;6.58;100.00
8059;BME280;4072;42.668;23.396;2023-12-14T02:43:52;94078.38;;;6.51;100.00
8059;BME280;4072;42.668;23.396;2023-12-14T02:46:20;94097.50;;;6.53;100.00
8059;BME280;4072;42.668;23.396;2023-12-14T02:48:48;94077.66;;;6.59;100.00
8059;BME280;4072;42.668;23.396;2023-12-14T02:51:17;94084.34;;;6.55;100.00
8059;BME280;4072;42.668;23.396;2023-12-14T02:53:46;94091.50;;;6.49;100.00
8059;BME280;4072;42.668;23.396;2023-12-14T02:56:14;94102.50;;;6.42;100.00
8059;BME280;4072;42.668;23.396;2023-12-14T02:58:44;94078.94;;;6.37;100.00
8059;BME280;4072;42.668;23.396;2023-12-14T03:01:18;93945.56;;;5.54;100.00
8059;BME280;4072;42.668;23.396;2023-12-14T03:03:47;94080.31;;;6.50;100.00
8059;BME280;4072;42.668;23.396;2023-12-14T03:06:16;94107.94;;;6.51;100.00
8059;BME280;4072;42.668;23.396;2023-12-14T03:08:44;94057.72;;;6.30;100.00
8059;BME280;4072;42.668;23.396;2023-12-14T03:11:21;94093.94;;;6.65;100.00
8059;BME280;4072;42.668;23.396;2023-12-14T03:13:51;94098.28;;;6.71;100.00
8059;BME280;4072;42.668;23.396;2023-12-14T03:16:19;94072.47;;;6.83;100.00
8059;BME280;4072;42.668;23.396;2023-12-14T03:18:48;94076.06;;;6.89;100.00
8059;BME280;4072;42.668;23.396;2023-12-14T03:21:19;94070.09;;;6.85;100.00
8059;BME280;4072;42.668;23.396;2023-12-14T03:23:48;94071.44;;;6.89;100.00
8059;BME280;4072;42.668;23.396;2023-12-14T03:26:16;94057.56;;;7.00;100.00
8059;BME280;4072;42.668;23.396;2023-12-14T03:28:45;94073.38;;;6.98;100.00
8059;BME280;4072;42.668;23.396;2023-12-14T03:31:15;94063.38;;;6.98;100.00
8059;BME280;4072;42.668;23.396;2023-12-14T03:33:43;94070.72;;;7.07;100.00
8059;BME280;4072;42.668;23.396;2023-12-14T03:36:11;94069.81;;;6.92;100.00
8059;BME280;4072;42.668;23.396;2023-12-14T03:38:39;94037.97;;;6.81;100.00
8059;BME280;4072;42.668;23.396;2023-12-14T03:41:07;94060.84;;;7.04;100.00
8059;BME280;4072;42.668;23.396;2023-12-14T03:43:36;94060.09;;;7.03;100.00
8059;BME280;4072;42.668;23.396;2023-12-14T03:46:04;94032.47;;;7.03;100.00
8059;BME280;4072;42.668;23.396;2023-12-14T03:48:34;94047.09;;;6.93;100.00
8059;BME280;4072;42.668;23.396;2023-12-14T03:51:02;94048.91;;;6.96;100.00
8059;BME280;4072;42.668;23.396;2023-12-14T03:53:31;94051.28;;;6.94;100.00
8059;BME280;4072;42.668;23.396;2023-12-14T03:56:01;94044.13;;;7.00;100.00
8059;BME280;4072;42.668;23.396;2023-12-14T03:58:29;94032.78;;;6.96;100.00
8059;BME280;4072;42.668;23.396;2023-12-14T04:00:58;94026.03;;;6.91;100.00
8059;BME280;4072;42.668;23.396;2023-12-14T04:03:27;94063.69;;;6.91;100.00
8059;BME280;4072;42.668;23.396;2023-12-14T04:05:56;94026.78;;;6.92;100.00
8059;BME280;4072;42.668;23.396;2023-12-14T04:08:25;94032.16;;;6.83;100.00
8059;BME280;4072;42.668;23.396;2023-12-14T04:10:53;94050.66;;;6.72;100.00
8059;BME280;4072;42.668;23.396;2023-12-14T04:13:21;94062.00;;;6.76;100.00
8059;BME280;4072;42.668;23.396;2023-12-14T04:15:49;94045.00;;;6.79;100.00
8059;BME280;4072;42.668;23.396;2023-12-14T04:18:17;94054.25;;;6.78;100.00
8059;BME280;4072;42.668;23.396;2023-12-14T04:20:46;94069.00;;;6.64;100.00
8059;BME280;4072;42.668;23.396;2023-12-14T04:23:15;94028.25;;;6.57;100.00
8059;BME280;4072;42.668;23.396;2023-12-14T04:25:45;94066.50;;;6.79;100.00
8059;BME280;4072;42.668;23.396;2023-12-14T04:28:13;94055.75;;;6.88;100.00
8059;BME280;4072;42.668;23.396;2023-12-14T04:30:43;94072.66;;;6.97;100.00
8059;BME280;4072;42.668;23.396;2023-12-14T04:33:13;94045.88;;;6.76;100.00
8059;BME280;4072;42.668;23.396;2023-12-14T04:35:41;94045.91;;;6.85;100.00
8059;BME280;4072;42.668;23.396;2023-12-14T04:38:09;94082.31;;;6.68;100.00
8059;BME280;4072;42.668;23.396;2023-12-14T04:40:39;94073.06;;;6.78;100.00
8059;BME280;4072;42.668;23.396;2023-12-14T04:43:09;94062.19;;;6.90;100.00
8059;BME280;4072;42.668;23.396;2023-12-14T04:45:37;94075.34;;;7.06;100.00
8059;BME280;4072;42.668;23.396;2023-12-14T04:48:05;94035.59;;;7.10;100.00
8059;BME280;4072;42.668;23.396;2023-12-14T04:50:34;94063.81;;;6.97;100.00
8059;BME280;4072;42.668;23.396;2023-12-14T04:53:02;94071.44;;;7.07;100.00
8059;BME280;4072;42.668;23.396;2023-12-14T04:55:31;94020.78;;;6.70;100.00
8059;BME280;4072;42.668;23.396;2023-12-14T04:58:02;94061.41;;;6.81;100.00
8059;BME280;4072;42.668;23.396;2023-12-14T05:00:30;94074.09;;;6.62;100.00
8059;BME280;4072;42.668;23.396;2023-12-14T05:02:58;94069.19;;;6.88;100.00
8059;BME280;4072;42.668;23.396;2023-12-14T05:05:26;94069.19;;;6.88;100.00
8059;BME280;4072;42.668;23.396;2023-12-14T05:07:54;94062.84;;;6.55;100.00
8059;BME280;4072;42.668;23.396;2023-12-14T05:10:23;94070.31;;;6.60;100.00
8059;BME280;4072;42.668;23.396;2023-12-14T05:12:51;94067.88;;;6.35;100.00
8059;BME280;4072;42.668;23.396;2023-12-14T05:15:20;94064.56;;;6.31;100.00
8059;BME280;4072;42.668;23.396;2023-12-14T05:17:49;94049.50;;;6.24;100.00
8059;BME280;4072;42.668;23.396;2023-12-14T05:20:17;94052.03;;;6.28;100.00
8059;BME280;4072;42.668;23.396;2023-12-14T05:22:47;94060.03;;;6.09;100.00
8059;BME280;4072;42.668;23.396;2023-12-14T05:25:16;94057.91;;;6.04;100.00
8059;BME280;4072;42.668;23.396;2023-12-14T05:27:44;94058.94;;;5.98;100.00
8059;BME280;4072;42.668;23.396;2023-12-14T05:30:13;94066.53;;;5.99;100.00
8059;BME280;4072;42.668;23.396;2023-12-14T05:32:43;94066.94;;;6.20;100.00
8059;BME280;4072;42.668;23.396;2023-12-14T05:35:11;94076.13;;;6.09;100.00
8059;BME280;4072;42.668;23.396;2023-12-14T05:37:40;94069.25;;;6.08;100.00
8059;BME280;4072;42.668;23.396;2023-12-14T05:40:10;94084.16;;;6.00;100.00
8059;BME280;4072;42.668;23.396;2023-12-14T05:42:39;94085.38;;;6.08;100.00
8059;BME280;4072;42.668;23.396;2023-12-14T05:45:07;94080.88;;;6.05;100.00
8059;BME280;4072;42.668;23.396;2023-12-14T05:47:38;94077.25;;;5.99;100.00
8059;BME280;4072;42.668;23.396;2023-12-14T05:50:10;94095.19;;;6.02;100.00
8059;BME280;4072;42.668;23.396;2023-12-14T05:52:39;94087.41;;;5.95;100.00
8059;BME280;4072;42.668;23.396;2023-12-14T05:55:09;94099.31;;;5.94;100.00
8059;BME280;4072;42.668;23.396;2023-12-14T05:57:38;94083.22;;;5.94;100.00
8059;BME280;4072;42.668;23.396;2023-12-14T06:00:07;94086.78;;;5.91;100.00
8059;BME280;4072;42.668;23.396;2023-12-14T06:02:35;94094.03;;;6.13;100.00
8059;BME280;4072;42.668;23.396;2023-12-14T06:05:06;94096.34;;;6.23;100.00
8059;BME280;4072;42.668;23.396;2023-12-14T06:07:36;94088.72;;;6.22;100.00
8059;BME280;4072;42.668;23.396;2023-12-14T06:10:06;94096.81;;;6.31;100.00
8059;BME280;4072;42.668;23.396;2023-12-14T06:12:34;94099.03;;;6.32;100.00
8059;BME280;4072;42.668;23.396;2023-12-14T06:15:05;94106.94;;;6.27;100.00
8059;BME280;4072;42.668;23.396;2023-12-14T06:17:33;94093.22;;;6.34;100.00
8059;BME280;4072;42.668;23.396;2023-12-14T06:20:07;94118.28;;;6.31;100.00
8059;BME280;4072;42.668;23.396;2023-12-14T06:22:37;94119.69;;;6.44;100.00
8059;BME280;4072;42.668;23.396;2023-12-14T06:25:06;94048.91;;;5.89;100.00
8059;BME280;4072;42.668;23.396;2023-12-14T06:27:34;94136.09;;;6.46;100.00
8059;BME280;4072;42.668;23.396;2023-12-14T06:30:03;94128.81;;;6.56;100.00
8059;BME280;4072;42.668;23.396;2023-12-14T06:32:32;94137.47;;;6.51;100.00
8059;BME280;4072;42.668;23.396;2023-12-14T06:35:01;94121.69;;;6.62;100.00
8059;BME280;4072;42.668;23.396;2023-12-14T06:37:30;94110.34;;;6.58;100.00
8059;BME280;4072;42.668;23.396;2023-12-14T06:39:59;94135.16;;;6.71;100.00
8059;BME280;4072;42.668;23.396;2023-12-14T06:42:28;94133.09;;;6.75;100.00
8059;BME280;4072;42.668;23.396;2023-12-14T06:44:57;94155.75;;;6.74;100.00
8059;BME280;4072;42.668;23.396;2023-12-14T06:47:25;94150.09;;;6.81;100.00
8059;BME280;4072;42.668;23.396;2023-12-14T06:49:54;94142.06;;;6.90;100.00
8059;BME280;4072;42.668;23.396;2023-12-14T06:52:24;94131.34;;;7.08;100.00
8059;BME280;4072;42.668;23.396;2023-12-14T06:54:52;94141.50;;;7.13;100.00
8059;BME280;4072;42.668;23.396;2023-12-14T06:57:21;94160.94;;;6.99;100.00
8059;BME280;4072;42.668;23.396;2023-12-14T06:59:53;94157.34;;;7.11;100.00
8059;BME280;4072;42.668;23.396;2023-12-14T07:02:21;94141.81;;;7.15;100.00
8059;BME280;4072;42.668;23.396;2023-12-14T07:04:49;94137.34;;;7.21;100.00
8059;BME280;4072;42.668;23.396;2023-12-14T07:07:18;94149.63;;;7.40;100.00
8059;BME280;4072;42.668;23.396;2023-12-14T07:09:46;94164.53;;;7.23;100.00
8059;BME280;4072;42.668;23.396;2023-12-14T07:12:15;94140.94;;;7.36;100.00
8059;BME280;4072;42.668;23.396;2023-12-14T07:14:46;94124.66;;;7.30;100.00
8059;BME280;4072;42.668;23.396;2023-12-14T07:17:14;94143.97;;;7.56;100.00
8059;BME280;4072;42.668;23.396;2023-12-14T07:19:42;94152.00;;;7.65;100.00
8059;BME280;4072;42.668;23.396;2023-12-14T07:22:10;94151.09;;;7.86;100.00
8059;BME280;4072;42.668;23.396;2023-12-14T07:24:38;94143.66;;;7.63;100.00
8059;BME280;4072;42.668;23.396;2023-12-14T07:27:18;94159.47;;;8.06;100.00
8059;BME280;4072;42.668;23.396;2023-12-14T07:29:48;94148.97;;;8.17;100.00
8059;BME280;4072;42.668;23.396;2023-12-14T07:32:16;94142.97;;;8.31;100.00
8059;BME280;4072;42.668;23.396;2023-12-14T07:34:44;94161.25;;;8.27;100.00
8059;BME280;4072;42.668;23.396;2023-12-14T07:37:12;94157.59;;;8.48;100.00
8059;BME280;4072;42.668;23.396;2023-12-14T07:39:41;94155.75;;;8.54;100.00
8059;BME280;4072;42.668;23.396;2023-12-14T07:42:09;94163.97;;;8.59;100.00
8059;BME280;4072;42.668;23.396;2023-12-14T07:44:38;94160.78;;;8.79;100.00
8059;BME280;4072;42.668;23.396;2023-12-14T07:47:08;94161.38;;;8.74;100.00
8059;BME280;4072;42.668;23.396;2023-12-14T07:49:37;94163.09;;;8.95;100.00
8059;BME280;4072;42.668;23.396;2023-12-14T07:52:05;94167.56;;;8.98;100.00
8059;BME280;4072;42.668;23.396;2023-12-14T07:54:34;94176.53;;;9.04;100.00
8059;BME280;4072;42.668;23.396;2023-12-14T07:57:03;94163.91;;;9.10;100.00
8059;BME280;4072;42.668;23.396;2023-12-14T07:59:31;94172.19;;;9.30;100.00
8059;BME280;4072;42.668;23.396;2023-12-14T08:01:59;94177.59;;;9.30;100.00
8059;BME280;4072;42.668;23.396;2023-12-14T08:04:29;94162.03;;;9.49;100.00
8059;BME280;4072;42.668;23.396;2023-12-14T08:06:57;94183.22;;;9.41;100.00
8059;BME280;4072;42.668;23.396;2023-12-14T08:09:25;94167.75;;;9.65;100.00
8059;BME280;4072;42.668;23.396;2023-12-14T08:11:53;94168.13;;;9.73;100.00
8059;BME280;4072;42.668;23.396;2023-12-14T08:14:22;94157.47;;;9.78;100.00
8059;BME280;4072;42.668;23.396;2023-12-14T08:16:50;94174.22;;;9.82;100.00
8059;BME280;4072;42.668;23.396;2023-12-14T08:19:19;94159.34;;;10.01;100.00
8059;BME280;4072;42.668;23.396;2023-12-14T08:21:49;94155.78;;;9.95;100.00
8059;BME280;4072;42.668;23.396;2023-12-14T08:24:17;94172.44;;;9.79;100.00
8059;BME280;4072;42.668;23.396;2023-12-14T08:26:45;94183.81;;;9.83;100.00
8059;BME280;4072;42.668;23.396;2023-12-14T08:29:13;94172.66;;;9.90;100.00
8059;BME280;4072;42.668;23.396;2023-12-14T08:31:42;94154.41;;;9.85;100.00
8059;BME280;4072;42.668;23.396;2023-12-14T08:34:10;94177.84;;;9.79;100.00
8059;BME280;4072;42.668;23.396;2023-12-14T08:36:38;94181.56;;;9.82;100.00
8059;BME280;4072;42.668;23.396;2023-12-14T08:39:08;94175.22;;;10.08;100.00
8059;BME280;4072;42.668;23.396;2023-12-14T08:41:36;94168.91;;;10.11;100.00
8059;BME280;4072;42.668;23.396;2023-12-14T08:44:05;94162.81;;;10.16;100.00
8059;BME280;4072;42.668;23.396;2023-12-14T08:46:38;94099.13;;;9.57;100.00
8059;BME280;4072;42.668;23.396;2023-12-14T08:49:07;94168.72;;;10.29;100.00
8059;BME280;4072;42.668;23.396;2023-12-14T08:51:35;94186.59;;;10.41;100.00
8059;BME280;4072;42.668;23.396;2023-12-14T08:54:03;94184.94;;;10.58;100.00
8059;BME280;4072;42.668;23.396;2023-12-14T08:56:33;94149.59;;;10.47;100.00
8059;BME280;4072;42.668;23.396;2023-12-14T08:59:02;94178.59;;;10.61;100.00
8059;BME280;4072;42.668;23.396;2023-12-14T09:01:31;94168.31;;;10.65;100.00
8059;BME280;4072;42.668;23.396;2023-12-14T09:03:59;94186.19;;;10.92;100.00
8059;BME280;4072;42.668;23.396;2023-12-14T09:06:27;94177.22;;;11.00;100.00
8059;BME280;4072;42.668;23.396;2023-12-14T09:08:56;94170.28;;;11.14;100.00
8059;BME280;4072;42.668;23.396;2023-12-14T09:11:26;94169.03;;;10.95;100.00
8059;BME280;4072;42.668;23.396;2023-12-14T09:14:03;94184.63;;;10.85;100.00
8059;BME280;4072;42.668;23.396;2023-12-14T09:16:32;94183.75;;;11.08;100.00
8059;BME280;4072;42.668;23.396;2023-12-14T09:19:00;94150.47;;;11.22;100.00
8059;BME280;4072;42.668;23.396;2023-12-14T09:21:28;94151.25;;;11.08;100.00
8059;BME280;4072;42.668;23.396;2023-12-14T09:24:10;94179.28;;;11.05;100.00
8059;BME280;4072;42.668;23.396;2023-12-14T09:26:39;94153.53;;;11.30;100.00
8059;BME280;4072;42.668;23.396;2023-12-14T09:29:09;94123.34;;;11.37;100.00
8059;BME280;4072;42.668;23.396;2023-12-14T09:31:41;94144.94;;;11.31;100.00
8059;BME280;4072;42.668;23.396;2023-12-14T09:34:10;94178.81;;;11.41;100.00
8059;BME280;4072;42.668;23.396;2023-12-14T09:36:38;94162.28;;;11.59;100.00
8059;BME280;4072;42.668;23.396;2023-12-14T09:39:07;94169.19;;;11.60;100.00
8059;BME280;4072;42.668;23.396;2023-12-14T09:41:38;94176.34;;;11.43;100.00
8059;BME280;4072;42.668;23.396;2023-12-14T09:44:07;94180.97;;;11.57;100.00
8059;BME280;4072;42.668;23.396;2023-12-14T09:46:38;94163.38;;;11.88;100.00
8059;BME280;4072;42.668;23.396;2023-12-14T09:49:09;94167.03;;;12.05;100.00
8059;BME280;4072;42.668;23.396;2023-12-14T09:51:41;94203.88;;;12.17;100.00
8059;BME280;4072;42.668;23.396;2023-12-14T09:54:09;94120.63;;;11.97;100.00
8059;BME280;4072;42.668;23.396;2023-12-14T09:56:45;94128.81;;;12.03;100.00
8059;BME280;4072;42.668;23.396;2023-12-14T09:59:14;94163.91;;;12.12;100.00
8059;BME280;4072;42.668;23.396;2023-12-14T10:01:44;94188.66;;;12.50;100.00
8059;BME280;4072;42.668;23.396;2023-12-14T10:04:14;94188.56;;;12.65;100.00
8059;BME280;4072;42.668;23.396;2023-12-14T10:06:43;94191.38;;;12.76;100.00
8059;BME280;4072;42.668;23.396;2023-12-14T10:09:12;94182.28;;;12.79;100.00
8059;BME280;4072;42.668;23.396;2023-12-14T10:11:43;94162.66;;;12.95;100.00
8059;BME280;4072;42.668;23.396;2023-12-14T10:14:19;94176.13;;;12.84;100.00
8059;BME280;4072;42.668;23.396;2023-12-14T10:16:51;94140.22;;;12.63;100.00
8059;BME280;4072;42.668;23.396;2023-12-14T10:19:29;94164.25;;;12.76;100.00
8059;BME280;4072;42.668;23.396;2023-12-14T10:21:57;94193.75;;;12.94;100.00
8059;BME280;4072;42.668;23.396;2023-12-14T10:24:28;94184.28;;;12.84;100.00
8059;BME280;4072;42.668;23.396;2023-12-14T10:26:56;94184.59;;;12.91;100.00
8059;BME280;4072;42.668;23.396;2023-12-14T10:29:25;94185.25;;;12.81;100.00
8059;BME280;4072;42.668;23.396;2023-12-14T10:31:54;94158.44;;;12.63;100.00
8059;BME280;4072;42.668;23.396;2023-12-14T10:34:22;94172.81;;;12.43;100.00
8059;BME280;4072;42.668;23.396;2023-12-14T10:36:51;94174.09;;;12.22;100.00
8059;BME280;4072;42.668;23.396;2023-12-14T10:39:20;94196.69;;;12.14;100.00
8059;BME280;4072;42.668;23.396;2023-12-14T10:41:50;94194.50;;;11.92;100.00
8059;BME280;4072;42.668;23.396;2023-12-14T10:44:36;94202.00;;;11.82;100.00
8059;BME280;4072;42.668;23.396;2023-12-14T10:47:26;94204.09;;;11.73;100.00
8059;BME280;4072;42.668;23.396;2023-12-14T10:49:55;94215.16;;;11.69;100.00
8059;BME280;4072;42.668;23.396;2023-12-14T10:52:25;94209.44;;;11.67;100.00
8059;BME280;4072;42.668;23.396;2023-12-14T10:55:00;94223.66;;;11.82;100.00
8059;BME280;4072;42.668;23.396;2023-12-14T10:57:30;94223.66;;;11.82;100.00
8059;BME280;4072;42.668;23.396;2023-12-14T11:00:00;94236.00;;;11.83;100.00
8059;BME280;4072;42.668;23.396;2023-12-14T11:02:30;94235.03;;;11.86;100.00
8059;BME280;4072;42.668;23.396;2023-12-14T11:05:00;94240.47;;;12.07;100.00
8059;BME280;4072;42.668;23.396;2023-12-14T11:07:46;94238.41;;;12.22;100.00
8059;BME280;4072;42.668;23.396;2023-12-14T11:10:20;94250.78;;;12.03;100.00
8059;BME280;4072;42.668;23.396;2023-12-14T11:12:59;94203.28;;;11.87;100.00
8059;BME280;4072;42.668;23.396;2023-12-14T11:15:29;94251.56;;;12.29;100.00
8059;BME280;4072;42.668;23.396;2023-12-14T11:21:03;94268.25;;;12.02;100.00
8059;BME280;4072;42.668;23.396;2023-12-14T11:23:34;94264.72;;;11.96;100.00
8059;BME280;4072;42.668;23.396;2023-12-14T11:26:05;94275.53;;;12.10;100.00
8059;BME280;4072;42.668;23.396;2023-12-14T11:28:35;94295.34;;;12.22;100.00
8059;BME280;4072;42.668;23.396;2023-12-14T11:31:04;94278.13;;;12.25;100.00
8059;BME280;4072;42.668;23.396;2023-12-14T11:33:35;94284.25;;;12.20;100.00
8059;BME280;4072;42.668;23.396;2023-12-14T11:36:11;94292.50;;;12.11;100.00
8059;BME280;4072;42.668;23.396;2023-12-14T11:38:41;94288.38;;;12.15;100.00
8059;BME280;4072;42.668;23.396;2023-12-14T11:41:11;94294.63;;;12.21;100.00
8059;BME280;4072;42.668;23.396;2023-12-14T11:43:40;94269.06;;;11.88;100.00
8059;BME280;4072;42.668;23.396;2023-12-14T11:46:09;94283.09;;;12.06;100.00
8059;BME280;4072;42.668;23.396;2023-12-14T11:48:38;94283.72;;;11.96;100.00
8059;BME280;4072;42.668;23.396;2023-12-14T11:51:07;94284.72;;;11.98;100.00
8059;BME280;4072;42.668;23.396;2023-12-14T11:53:37;94299.69;;;11.93;100.00
8059;BME280;4072;42.668;23.396;2023-12-14T11:56:07;94314.72;;;11.74;100.00
8059;BME280;4072;42.668;23.396;2023-12-14T11:58:36;94326.28;;;11.75;100.00
8059;BME280;4072;42.668;23.396;2023-12-14T12:01:12;94287.84;;;11.42;100.00
8059;BME280;4072;42.668;23.396;2023-12-14T12:03:40;94303.19;;;11.30;100.00
8059;BME280;4072;42.668;23.396;2023-12-14T12:06:20;94273.91;;;11.14;100.00
8059;BME280;4072;42.668;23.396;2023-12-14T12:08:50;94317.50;;;11.16;100.00
8059;BME280;4072;42.668;23.396;2023-12-14T12:11:18;94296.28;;;11.00;100.00
8059;BME280;4072;42.668;23.396;2023-12-14T12:13:50;94333.25;;;11.03;100.00
8059;BME280;4072;42.668;23.396;2023-12-14T12:16:19;94321.88;;;10.99;100.00
8059;BME280;4072;42.668;23.396;2023-12-14T12:18:47;94329.16;;;11.08;100.00
8059;BME280;4072;42.668;23.396;2023-12-14T12:21:17;94312.88;;;10.64;100.00
8059;BME280;4072;42.668;23.396;2023-12-14T12:23:46;94315.25;;;11.00;100.00
8059;BME280;4072;42.668;23.396;2023-12-14T12:26:15;94328.78;;;11.00;100.00
8059;BME280;4072;42.668;23.396;2023-12-14T12:28:44;94321.88;;;10.99;100.00
8059;BME280;4072;42.668;23.396;2023-12-14T12:31:15;94311.31;;;11.01;100.00
8059;BME280;4072;42.668;23.396;2023-12-14T12:33:43;94335.78;;;10.92;100.00
8059;BME280;4072;42.668;23.396;2023-12-14T12:36:12;94318.88;;;10.97;100.00
8059;BME280;4072;42.668;23.396;2023-12-14T12:38:40;94303.19;;;10.72;100.00
8059;BME280;4072;42.668;23.396;2023-12-14T12:41:09;94312.72;;;10.82;100.00
8059;BME280;4072;42.668;23.396;2023-12-14T12:43:39;94329.28;;;10.61;100.00
8059;BME280;4072;42.668;23.396;2023-12-14T12:46:07;94344.22;;;10.71;100.00
8059;BME280;4072;42.668;23.396;2023-12-14T12:48:35;94340.50;;;10.68;100.00
8059;BME280;4072;42.668;23.396;2023-12-14T12:51:04;94332.69;;;10.70;100.00
8059;BME280;4072;42.668;23.396;2023-12-14T12:53:32;94341.63;;;10.62;100.00
8059;BME280;4072;42.668;23.396;2023-12-14T12:56:00;94341.25;;;10.83;100.00
8059;BME280;4072;42.668;23.396;2023-12-14T12:58:29;94345.19;;;10.82;100.00
8059;BME280;4072;42.668;23.396;2023-12-14T13:00:59;94353.59;;;10.84;100.00
8059;BME280;4072;42.668;23.396;2023-12-14T13:03:27;94345.50;;;10.61;100.00
8059;BME280;4072;42.668;23.396;2023-12-14T13:05:55;94345.34;;;10.64;100.00
8059;BME280;4072;42.668;23.396;2023-12-14T13:08:26;94356.31;;;10.61;100.00
8059;BME280;4072;42.668;23.396;2023-12-14T13:10:54;94349.28;;;10.63;100.00
8059;BME280;4072;42.668;23.396;2023-12-14T13:13:23;94343.19;;;10.68;100.00
8059;BME280;4072;42.668;23.396;2023-12-14T13:15:53;94352.59;;;10.58;100.00
8059;BME280;4072;42.668;23.396;2023-12-14T13:18:23;94334.03;;;10.51;100.00
8059;BME280;4072;42.668;23.396;2023-12-14T13:20:52;94351.03;;;10.28;100.00